createdAt,value
2019-02-11T00:02:23.803Z,6.17
2019-02-11T00:04:57.369Z,6.30
2019-02-11T00:07:30.944Z,6.33
2019-02-11T00:10:05.068Z,6.52
2019-02-11T00:12:38.427Z,6.53
2019-02-11T00:15:11.893Z,6.61
2019-02-11T00:17:45.384Z,6.65
2019-02-11T00:20:18.862Z,6.65
2019-02-11T00:22:52.415Z,6.68
2019-02-11T00:25:25.896Z,6.73
2019-02-11T00:27:59.361Z,6.80
2019-02-11T00:30:34.282Z,6.86
2019-02-11T00:33:08.113Z,6.93
2019-02-11T00:35:41.667Z,6.87
2019-02-11T00:38:15.199Z,6.83
2019-02-11T00:40:48.736Z,6.97
2019-02-11T00:43:22.245Z,7.02
2019-02-11T00:45:55.771Z,6.95
2019-02-11T00:48:29.279Z,6.99
2019-02-11T00:51:02.803Z,7.07
2019-02-11T00:53:36.294Z,7.07
2019-02-11T00:56:09.805Z,7.08
2019-02-11T00:58:43.272Z,7.06
2019-02-11T01:01:16.732Z,7.10
2019-02-11T01:03:50.145Z,7.02
2019-02-11T01:06:23.707Z,7.00
2019-02-11T01:08:57.139Z,7.10
2019-02-11T01:11:30.678Z,7.08
2019-02-11T01:14:04.166Z,7.17
2019-02-11T01:16:37.574Z,7.14
2019-02-11T01:19:11.037Z,7.14
2019-02-11T01:21:44.491Z,7.14
2019-02-11T01:24:17.951Z,7.25
2019-02-11T01:26:51.395Z,7.27
2019-02-11T01:29:24.821Z,7.29
2019-02-11T01:31:58.343Z,7.29
2019-02-11T01:34:31.778Z,7.25
2019-02-11T01:37:05.213Z,7.30
2019-02-11T01:39:38.688Z,7.30
2019-02-11T01:42:12.089Z,7.36
2019-02-11T01:44:45.502Z,7.36
2019-02-11T01:47:19.024Z,7.29
2019-02-11T01:49:52.474Z,7.41
2019-02-11T01:52:25.869Z,7.41
2019-02-11T01:54:59.312Z,7.46
2019-02-11T01:57:32.819Z,7.51
2019-02-11T02:00:13.993Z,7.51
2019-02-11T02:02:47.449Z,7.47
2019-02-11T02:05:20.896Z,7.51
2019-02-11T02:07:54.425Z,7.50
2019-02-11T02:10:27.914Z,7.55
2019-02-11T02:13:01.381Z,7.55
2019-02-11T02:15:34.903Z,7.61
2019-02-11T02:18:08.338Z,7.54
2019-02-11T02:20:41.800Z,7.38
2019-02-11T02:23:15.349Z,7.44
2019-02-11T02:25:48.876Z,7.41
2019-02-11T02:28:22.215Z,7.46
2019-02-11T02:30:55.681Z,7.45
2019-02-11T02:33:29.109Z,7.58
2019-02-11T02:36:02.726Z,7.58
2019-02-11T02:38:36.086Z,7.58
2019-02-11T02:41:09.528Z,7.64
2019-02-11T02:43:42.983Z,7.64
2019-02-11T02:46:16.672Z,7.65
2019-02-11T02:48:50.025Z,7.62
2019-02-11T02:51:23.476Z,7.64
2019-02-11T02:53:56.888Z,7.60
2019-02-11T02:56:30.355Z,7.63
2019-02-11T02:59:03.869Z,7.62
2019-02-11T03:01:37.450Z,7.60
2019-02-11T03:04:11.054Z,7.62
2019-02-11T03:06:44.616Z,7.72
2019-02-11T03:09:18.224Z,7.65
2019-02-11T03:11:51.839Z,7.65
2019-02-11T03:14:25.386Z,7.60
2019-02-11T03:16:58.900Z,7.67
2019-02-11T03:19:32.435Z,7.67
2019-02-11T03:22:05.849Z,7.71
2019-02-11T03:24:39.466Z,7.68
2019-02-11T03:27:12.984Z,7.70
2019-02-11T03:29:47.159Z,7.73
2019-02-11T03:32:20.714Z,7.78
2019-02-11T03:34:54.390Z,7.66
2019-02-11T03:37:27.766Z,7.68
2019-02-11T03:40:01.254Z,7.73
2019-02-11T03:42:34.811Z,7.70
2019-02-11T03:45:13.450Z,7.71
2019-02-11T03:47:46.927Z,7.69
2019-02-11T03:50:20.526Z,7.81
2019-02-11T03:52:54.040Z,7.78
2019-02-11T03:55:27.678Z,7.61
2019-02-11T03:58:01.194Z,7.72
2019-02-11T04:00:34.708Z,7.76
2019-02-11T04:03:08.261Z,7.76
2019-02-11T04:05:41.807Z,7.77
2019-02-11T04:08:15.357Z,7.82
2019-02-11T04:10:48.814Z,7.70
2019-02-11T04:13:22.350Z,7.80
2019-02-11T04:15:55.908Z,7.85
2019-02-11T04:18:29.297Z,7.77
2019-02-11T04:21:02.887Z,7.70
2019-02-11T04:23:36.407Z,7.64
2019-02-11T04:26:09.928Z,7.76
2019-02-11T04:28:43.591Z,7.78
2019-02-11T04:31:17.020Z,7.82
2019-02-11T04:33:50.480Z,7.83
2019-02-11T04:36:23.836Z,7.79
2019-02-11T04:38:57.542Z,7.86
2019-02-11T04:41:31.169Z,7.71
2019-02-11T04:44:04.883Z,7.65
2019-02-11T04:46:38.399Z,7.74
2019-02-11T04:49:12.024Z,7.90
2019-02-11T04:51:45.559Z,7.83
2019-02-11T04:54:19.123Z,7.91
2019-02-11T04:56:53.998Z,7.72
2019-02-11T04:59:27.500Z,7.84
2019-02-11T05:02:01.008Z,7.82
2019-02-11T05:04:34.596Z,7.76
2019-02-11T05:07:08.109Z,7.82
2019-02-11T05:09:41.587Z,7.80
2019-02-11T05:12:15.272Z,7.80
2019-02-11T05:14:48.797Z,7.76
2019-02-11T05:17:22.368Z,7.76
2019-02-11T05:19:55.861Z,7.80
2019-02-11T05:22:29.399Z,7.79
2019-02-11T05:25:03.015Z,7.81
2019-02-11T05:27:36.502Z,7.79
2019-02-11T05:30:13.310Z,7.78
2019-02-11T05:32:46.780Z,7.77
2019-02-11T05:35:20.412Z,7.66
2019-02-11T05:37:53.930Z,7.68
2019-02-11T05:40:27.437Z,7.70
2019-02-11T05:43:01.003Z,7.67
2019-02-11T05:45:34.554Z,7.57
2019-02-11T05:48:08.061Z,7.54
2019-02-11T05:50:41.675Z,7.51
2019-02-11T05:53:15.203Z,7.51
2019-02-11T05:55:48.836Z,7.60
2019-02-11T05:58:22.267Z,7.52
2019-02-11T06:00:55.857Z,7.51
2019-02-11T06:03:29.311Z,7.56
2019-02-11T06:06:02.948Z,7.53
2019-02-11T06:08:37.263Z,7.54
2019-02-11T06:11:10.818Z,7.54
2019-02-11T06:13:44.370Z,7.62
2019-02-11T06:16:17.887Z,7.60
2019-02-11T06:18:51.435Z,7.45
2019-02-11T06:21:25.003Z,7.70
2019-02-11T06:23:58.558Z,7.64
2019-02-11T06:26:32.130Z,7.71
2019-02-11T06:29:05.714Z,7.83
2019-02-11T06:31:39.184Z,7.68
2019-02-11T06:34:12.929Z,7.68
2019-02-11T06:36:46.278Z,7.66
2019-02-11T06:39:19.829Z,7.67
2019-02-11T06:41:53.481Z,7.64
2019-02-11T06:44:27.008Z,7.65
2019-02-11T06:47:00.627Z,7.69
2019-02-11T06:49:34.209Z,7.69
2019-02-11T06:52:07.702Z,7.51
2019-02-11T06:54:41.255Z,7.57
2019-02-11T06:57:14.688Z,7.67
2019-02-11T06:59:48.168Z,7.67
2019-02-11T07:02:23.697Z,7.58
2019-02-11T07:04:57.133Z,7.62
2019-02-11T07:07:30.623Z,7.60
2019-02-11T07:10:06.260Z,7.68
2019-02-11T07:12:39.755Z,7.66
2019-02-11T07:15:21.479Z,7.55
2019-02-11T07:17:49.928Z,7.56
2019-02-11T07:20:23.545Z,7.47
2019-02-11T07:22:56.981Z,7.47
2019-02-11T07:25:30.441Z,7.47
2019-02-11T07:28:04.030Z,7.47
2019-02-11T07:30:37.643Z,7.52
2019-02-11T07:33:11.217Z,7.60
2019-02-11T07:35:44.874Z,7.77
2019-02-11T07:38:18.369Z,7.79
2019-02-11T07:40:51.970Z,7.82
2019-02-11T07:43:27.061Z,7.77
2019-02-11T07:46:02.358Z,7.79
2019-02-11T07:48:35.785Z,7.71
2019-02-11T07:51:09.333Z,7.80
2019-02-11T07:53:42.828Z,7.83
2019-02-11T07:56:16.418Z,7.94
2019-02-11T07:58:49.860Z,7.99
2019-02-11T08:01:23.339Z,8.03
2019-02-11T08:03:56.858Z,8.04
2019-02-11T08:06:30.447Z,8.09
2019-02-11T08:09:06.481Z,8.25
2019-02-11T08:11:40.011Z,8.03
2019-02-11T08:14:13.464Z,8.04
2019-02-11T08:16:46.993Z,7.89
2019-02-11T08:19:20.484Z,8.07
2019-02-11T08:21:54.036Z,8.16
2019-02-11T08:24:27.550Z,8.31
2019-02-11T08:27:01.039Z,8.35
2019-02-11T08:29:34.593Z,8.31
2019-02-11T08:32:08.122Z,8.32
2019-02-11T08:34:41.584Z,8.43
2019-02-11T08:37:15.087Z,8.39
2019-02-11T08:39:48.717Z,8.40
2019-02-11T08:42:22.164Z,8.49
2019-02-11T08:44:55.619Z,8.50
2019-02-11T08:47:29.261Z,8.45
2019-02-11T08:50:02.939Z,8.51
2019-02-11T08:52:36.510Z,8.54
2019-02-11T08:55:10.163Z,8.55
2019-02-11T08:57:43.515Z,8.59
2019-02-11T09:00:17.082Z,8.59
2019-02-11T09:02:50.651Z,8.60
2019-02-11T09:05:24.144Z,8.75
2019-02-11T09:07:57.591Z,8.69
2019-02-11T09:10:31.048Z,8.80
2019-02-11T09:13:04.631Z,8.85
2019-02-11T09:15:38.170Z,8.92
2019-02-11T09:18:11.669Z,9.10
2019-02-11T09:20:45.143Z,9.13
2019-02-11T09:23:18.711Z,9.11
2019-02-11T09:25:52.245Z,9.08
2019-02-11T09:28:25.690Z,9.15
2019-02-11T09:30:59.289Z,9.21
2019-02-11T09:33:32.844Z,9.42
2019-02-11T09:36:06.390Z,9.21
2019-02-11T09:38:40.019Z,9.27
2019-02-11T09:41:14.757Z,9.54
2019-02-11T09:43:48.183Z,9.64
2019-02-11T09:46:21.838Z,9.83
2019-02-11T09:48:55.367Z,9.85
2019-02-11T09:51:29.029Z,9.59
2019-02-11T09:54:02.818Z,9.68
2019-02-11T09:56:36.287Z,9.74
2019-02-11T09:59:09.805Z,9.76
2019-02-11T10:01:43.358Z,9.59
2019-02-11T10:04:16.813Z,9.68
2019-02-11T10:06:50.383Z,9.64
2019-02-11T10:09:24.086Z,9.78
2019-02-11T10:11:57.692Z,9.66
2019-02-11T10:14:31.189Z,9.82
2019-02-11T10:17:04.888Z,10.04
2019-02-11T10:19:38.412Z,9.82
2019-02-11T10:22:12.023Z,9.80
2019-02-11T10:24:45.741Z,9.63
2019-02-11T10:27:19.383Z,9.73
2019-02-11T10:29:52.930Z,9.94
2019-02-11T10:32:26.552Z,9.78
2019-02-11T10:35:00.240Z,9.60
2019-02-11T10:37:33.802Z,9.43
2019-02-11T10:40:10.084Z,9.36
2019-02-11T10:42:43.651Z,9.47
2019-02-11T10:45:17.250Z,9.53
2019-02-11T10:47:50.708Z,9.28
2019-02-11T10:50:24.266Z,9.48
2019-02-11T10:52:57.754Z,9.38
2019-02-11T10:55:31.276Z,9.47
2019-02-11T10:58:05.342Z,9.52
2019-02-11T11:00:39.196Z,9.77
2019-02-11T11:03:12.775Z,9.85
2019-02-11T11:05:46.317Z,9.97
2019-02-11T11:08:19.860Z,10.06
2019-02-11T11:10:53.499Z,10.05
2019-02-11T11:13:26.982Z,9.82
2019-02-11T11:16:01.027Z,9.62
2019-02-11T11:18:34.525Z,9.52
2019-02-11T11:21:09.207Z,9.68
2019-02-11T11:23:42.649Z,9.86
2019-02-11T11:26:16.176Z,9.89
2019-02-11T11:28:49.672Z,9.96
2019-02-11T11:31:23.232Z,10.12
2019-02-11T11:33:56.807Z,10.01
2019-02-11T11:36:30.581Z,9.30
2019-02-11T11:39:06.504Z,8.78
2019-02-11T11:41:40.163Z,8.66
2019-02-11T11:44:13.588Z,8.59
2019-02-11T11:46:47.430Z,8.47
2019-02-11T11:49:21.139Z,8.76
2019-02-11T11:51:54.706Z,8.69
2019-02-11T11:54:28.165Z,9.63
2019-02-11T11:57:01.790Z,9.50
2019-02-11T11:59:35.375Z,9.39
2019-02-11T12:02:08.913Z,9.44
2019-02-11T12:04:42.429Z,9.36
2019-02-11T12:07:16.068Z,9.49
2019-02-11T12:09:49.658Z,9.54
2019-02-11T12:12:23.125Z,9.48
2019-02-11T12:14:56.595Z,9.54
2019-02-11T12:17:30.252Z,9.58
2019-02-11T12:20:03.935Z,9.63
2019-02-11T12:22:37.532Z,9.94
2019-02-11T12:25:13.616Z,10.08
2019-02-11T12:27:47.117Z,9.97
2019-02-11T12:30:25.550Z,9.76
2019-02-11T12:32:59.177Z,9.83
2019-02-11T12:35:32.657Z,9.67
2019-02-11T12:38:06.104Z,9.61
2019-02-11T12:40:39.544Z,9.83
2019-02-11T12:43:13.008Z,9.73
2019-02-11T12:45:46.657Z,9.99
2019-02-11T12:48:20.179Z,9.94
2019-02-11T12:50:53.752Z,10.04
2019-02-11T12:53:27.197Z,10.20
2019-02-11T12:56:02.401Z,10.27
2019-02-11T12:58:35.994Z,10.36
2019-02-11T13:01:09.481Z,10.43
2019-02-11T13:03:43.173Z,10.44
2019-02-11T13:06:16.637Z,10.46
2019-02-11T13:08:50.149Z,10.48
2019-02-11T13:11:23.690Z,10.25
2019-02-11T13:13:57.310Z,9.95
2019-02-11T13:16:30.847Z,10.07
2019-02-11T13:19:04.386Z,9.91
2019-02-11T13:21:37.989Z,9.87
2019-02-11T13:24:11.450Z,9.74
2019-02-11T13:26:44.994Z,9.48
2019-02-11T13:29:18.591Z,9.69
2019-02-11T13:31:52.086Z,9.78
2019-02-11T13:34:25.834Z,9.75
2019-02-11T13:36:59.372Z,9.59
2019-02-11T13:39:32.830Z,9.65
2019-02-11T13:42:06.420Z,9.24
2019-02-11T13:44:39.786Z,8.86
2019-02-11T13:47:13.243Z,8.67
2019-02-11T13:49:47.060Z,8.76
2019-02-11T13:52:20.776Z,8.36
2019-02-11T13:54:54.302Z,8.46
2019-02-11T13:57:27.819Z,8.25
2019-02-11T14:00:01.273Z,8.06
2019-02-11T14:02:35.435Z,7.97
2019-02-11T14:05:09.057Z,7.94
2019-02-11T14:07:42.729Z,7.96
2019-02-11T14:10:16.333Z,8.18
2019-02-11T14:12:50.268Z,8.10
2019-02-11T14:15:23.773Z,8.24
2019-02-11T14:18:13.091Z,8.32
2019-02-11T14:20:44.308Z,8.48
2019-02-11T14:23:18.002Z,8.30
2019-02-11T14:25:51.610Z,8.50
2019-02-11T14:28:25.186Z,8.69
2019-02-11T14:30:58.605Z,8.70
2019-02-11T14:33:32.199Z,8.70
2019-02-11T14:36:05.871Z,8.72
2019-02-11T14:38:39.404Z,8.57
2019-02-11T14:41:12.937Z,8.54
2019-02-11T14:43:46.425Z,8.59
2019-02-11T14:46:19.965Z,8.51
2019-02-11T14:48:53.498Z,8.65
2019-02-11T14:51:27.053Z,8.68
2019-02-11T14:54:00.557Z,8.75
2019-02-11T14:56:34.031Z,8.87
2019-02-11T14:59:07.677Z,8.76
2019-02-11T15:01:41.151Z,8.72
2019-02-11T15:04:14.585Z,8.74
2019-02-11T15:06:48.068Z,8.72
2019-02-11T15:09:21.584Z,8.84
2019-02-11T15:11:57.310Z,8.77
2019-02-11T15:14:30.741Z,8.68
2019-02-11T15:17:04.275Z,8.62
2019-02-11T15:19:37.735Z,8.79
2019-02-11T15:22:11.289Z,8.85
2019-02-11T15:24:44.778Z,8.80
2019-02-11T15:27:18.321Z,8.75
2019-02-11T15:29:51.942Z,8.59
2019-02-11T15:32:25.432Z,8.59
2019-02-11T15:34:59.043Z,8.68
2019-02-11T15:37:32.521Z,8.66
2019-02-11T15:40:09.043Z,8.63
2019-02-11T15:42:42.592Z,8.60
2019-02-11T15:45:16.169Z,8.60
2019-02-11T15:47:49.624Z,8.49
2019-02-11T15:50:23.144Z,8.44
2019-02-11T15:52:56.973Z,8.32
2019-02-11T15:55:30.595Z,8.39
2019-02-11T15:58:04.229Z,8.31
2019-02-11T16:00:37.795Z,8.33
2019-02-11T16:03:11.248Z,8.30
2019-02-11T16:05:49.627Z,8.10
2019-02-11T16:08:20.114Z,8.05
2019-02-11T16:11:01.227Z,8.08
2019-02-11T16:13:28.976Z,8.01
2019-02-11T16:16:02.560Z,7.98
2019-02-11T16:18:36.421Z,8.06
2019-02-11T16:21:10.105Z,7.95
2019-02-11T16:23:43.748Z,7.82
2019-02-11T16:26:17.486Z,7.76
2019-02-11T16:28:51.239Z,7.73
2019-02-11T16:31:24.842Z,7.73
2019-02-11T16:33:58.212Z,7.68
2019-02-11T16:36:31.810Z,7.67
2019-02-11T16:39:06.015Z,7.60
2019-02-11T16:41:39.751Z,7.54
2019-02-11T16:44:13.232Z,7.34
2019-02-11T16:46:46.630Z,7.36
2019-02-11T16:49:20.073Z,7.37
2019-02-11T16:51:53.577Z,7.29
2019-02-11T16:54:26.959Z,7.20
2019-02-11T16:57:00.431Z,7.18
2019-02-11T16:59:33.890Z,7.17
2019-02-11T17:02:07.369Z,7.09
2019-02-11T17:04:40.857Z,7.00
2019-02-11T17:07:14.439Z,6.94
2019-02-11T17:09:47.941Z,6.80
2019-02-11T17:12:21.544Z,6.80
2019-02-11T17:14:54.967Z,6.79
2019-02-11T17:17:28.458Z,6.76
2019-02-11T17:20:01.896Z,6.82
2019-02-11T17:22:35.450Z,6.82
2019-02-11T17:25:10.479Z,6.81
2019-02-11T17:27:44.021Z,6.79
2019-02-11T17:30:23.400Z,6.79
2019-02-11T17:32:56.864Z,6.86
2019-02-11T17:35:30.793Z,6.86
2019-02-11T17:38:05.020Z,6.71
2019-02-11T17:40:38.517Z,6.59
2019-02-11T17:43:12.144Z,6.81
2019-02-11T17:45:45.859Z,6.69
2019-02-11T17:48:20.394Z,6.69
2019-02-11T17:50:54.215Z,6.81
2019-02-11T17:53:27.695Z,6.91
2019-02-11T17:56:01.265Z,6.85
2019-02-11T17:58:34.886Z,6.73
2019-02-11T18:01:08.583Z,6.82
2019-02-11T18:03:42.227Z,6.69
2019-02-11T18:06:15.888Z,6.76
2019-02-11T18:08:49.358Z,6.57
2019-02-11T18:11:23.091Z,6.55
2019-02-11T18:13:56.544Z,6.55
2019-02-11T18:16:30.156Z,6.65
2019-02-11T18:19:04.219Z,6.73
2019-02-11T18:21:37.686Z,6.67
2019-02-11T18:24:11.221Z,6.80
2019-02-11T18:26:44.820Z,6.81
2019-02-11T18:29:18.468Z,6.80
2019-02-11T18:31:52.053Z,6.88
2019-02-11T18:34:25.600Z,6.94
2019-02-11T18:36:59.088Z,6.99
2019-02-11T18:39:32.689Z,7.03
2019-02-11T18:42:06.195Z,6.89
2019-02-11T18:44:39.717Z,6.89
2019-02-11T18:47:13.321Z,6.84
2019-02-11T18:49:46.928Z,6.93
2019-02-11T18:52:20.516Z,6.93
2019-02-11T18:54:54.023Z,6.98
2019-02-11T18:57:27.566Z,6.98
2019-02-11T19:00:10.842Z,6.99
2019-02-11T19:02:44.373Z,6.99
2019-02-11T19:05:18.254Z,6.91
2019-02-11T19:07:52.046Z,6.77
2019-02-11T19:10:25.485Z,6.67
2019-02-11T19:12:59.117Z,6.72
2019-02-11T19:15:32.850Z,6.67
2019-02-11T19:18:06.377Z,6.59
2019-02-11T19:20:39.776Z,6.53
2019-02-11T19:23:13.454Z,6.53
2019-02-11T19:25:47.091Z,6.65
2019-02-11T19:28:20.746Z,6.60
2019-02-11T19:30:54.421Z,6.65
2019-02-11T19:33:28.030Z,6.74
2019-02-11T19:36:01.652Z,6.64
2019-02-11T19:38:35.186Z,6.79
2019-02-11T19:41:08.796Z,6.63
2019-02-11T19:43:42.342Z,6.63
2019-02-11T19:46:15.873Z,6.75
2019-02-11T19:48:49.431Z,6.65
2019-02-11T19:51:22.950Z,6.50
2019-02-11T19:53:56.533Z,6.51
2019-02-11T19:56:30.540Z,6.50
2019-02-11T19:59:04.172Z,6.52
2019-02-11T20:01:37.607Z,6.55
2019-02-11T20:04:11.124Z,6.59
2019-02-11T20:06:44.637Z,6.54
2019-02-11T20:09:18.092Z,6.57
2019-02-11T20:11:51.544Z,6.65
2019-02-11T20:14:25.135Z,6.63
2019-02-11T20:16:58.790Z,6.60
2019-02-11T20:19:32.185Z,6.62
2019-02-11T20:22:05.770Z,6.40
2019-02-11T20:24:39.269Z,6.37
2019-02-11T20:27:12.829Z,6.48
2019-02-11T20:29:46.315Z,6.46
2019-02-11T20:32:19.872Z,6.48
2019-02-11T20:34:53.354Z,6.47
2019-02-11T20:37:26.926Z,6.42
2019-02-11T20:40:03.429Z,6.48
2019-02-11T20:42:35.639Z,6.42
2019-02-11T20:45:12.207Z,6.57
2019-02-11T20:47:45.866Z,6.56
2019-02-11T20:50:19.382Z,6.59
2019-02-11T20:52:52.844Z,6.58
2019-02-11T20:55:26.300Z,6.56
2019-02-11T20:58:00.835Z,6.50
2019-02-11T21:00:34.278Z,6.49
2019-02-11T21:03:08.644Z,6.36
2019-02-11T21:05:42.229Z,6.30
2019-02-11T21:08:15.881Z,6.29
2019-02-11T21:10:49.372Z,6.33
2019-02-11T21:13:23.016Z,6.34
2019-02-11T21:15:56.762Z,6.32
2019-02-11T21:18:30.301Z,6.28
2019-02-11T21:21:03.802Z,6.15
2019-02-11T21:23:38.171Z,6.14
2019-02-11T21:26:11.631Z,6.06
2019-02-11T21:28:45.161Z,6.15
2019-02-11T21:31:18.785Z,6.20
2019-02-11T21:33:52.310Z,6.20
2019-02-11T21:36:25.754Z,6.18
2019-02-11T21:38:59.246Z,6.14
2019-02-11T21:41:32.685Z,6.08
2019-02-11T21:44:06.323Z,6.19
2019-02-11T21:46:39.990Z,6.28
2019-02-11T21:49:13.574Z,6.28
2019-02-11T21:51:47.135Z,6.28
2019-02-11T21:54:20.723Z,6.33
2019-02-11T21:56:54.147Z,6.33
2019-02-11T21:59:27.748Z,6.39
2019-02-11T22:02:01.235Z,6.42
2019-02-11T22:04:34.762Z,6.39
2019-02-11T22:07:08.277Z,6.45
2019-02-11T22:09:41.783Z,6.50
2019-02-11T22:12:15.314Z,6.28
2019-02-11T22:14:48.950Z,6.37
2019-02-11T22:17:22.460Z,6.53
2019-02-11T22:19:55.927Z,6.53
2019-02-11T22:22:29.459Z,6.62
2019-02-11T22:25:03.308Z,6.55
2019-02-11T22:27:36.815Z,6.51
2019-02-11T22:30:16.590Z,6.57
2019-02-11T22:32:50.101Z,6.51
2019-02-11T22:35:23.591Z,6.44
2019-02-11T22:37:57.130Z,6.53
2019-02-11T22:40:30.528Z,6.48
2019-02-11T22:43:04.056Z,6.63
2019-02-11T22:45:37.675Z,6.62
2019-02-11T22:48:11.035Z,6.69
2019-02-11T22:50:44.560Z,6.69
2019-02-11T22:53:18.234Z,6.50
2019-02-11T22:55:51.711Z,6.52
2019-02-11T22:58:25.164Z,6.61
2019-02-11T23:01:00.280Z,6.53
2019-02-11T23:03:34.635Z,6.53
2019-02-11T23:06:08.211Z,6.58
2019-02-11T23:08:41.677Z,6.63
2019-02-11T23:11:15.097Z,6.55
2019-02-11T23:13:48.734Z,6.64
2019-02-11T23:16:22.155Z,6.64
2019-02-11T23:18:55.681Z,6.63
2019-02-11T23:21:29.134Z,6.62
2019-02-11T23:24:02.703Z,6.58
2019-02-11T23:26:36.203Z,6.61
2019-02-11T23:29:09.837Z,6.64
2019-02-11T23:31:43.372Z,6.71
2019-02-11T23:34:16.862Z,6.61
2019-02-11T23:36:50.335Z,6.66
2019-02-11T23:39:23.965Z,6.66
2019-02-11T23:41:57.537Z,6.66
2019-02-11T23:44:31.169Z,6.61
2019-02-11T23:47:04.626Z,6.63
2019-02-11T23:49:38.116Z,6.57
2019-02-11T23:52:11.714Z,6.63
2019-02-11T23:54:45.208Z,6.63
2019-02-11T23:57:18.832Z,6.56
2019-02-11T23:59:52.526Z,6.59
